Meteo Giornale » Osservazioni meteo Stati Uniti (USA) » Escanaba
ore: 08:56 - Osservazioni Meteo Escanaba
Lat. 45° 45' N Lon. 87° 2' W Alt. 180 metri s.l.m.
18 °C
Nebbia
Temp. 24 Ore
17 °C
25 °C
Nord
0 Km/h
Dew point 18 °C
Umidità 100 %
Visibilità 2 Km
Il sole sorge alle ore 07:09
Il sole tramonta alle ore 20:26
| Data e Ora | Cielo e Fenomeni | T °C | DP °C | Um. % | Pres. hPa | Vis. km | Vento km/h | |
|---|---|---|---|---|---|---|---|---|
| Oggi h: 08:56 | Nebbia | 18 | 18 | 100 | 1014 | 2 | N 0 | |
| Oggi h: 08:54 | Nebbia | 18 | 18 | 100 | 1014 | 2 | N 0 | |
| Oggi h: 08:09 | Nebbia | 17 | 17 | 100 | 1013 | 0 | N 0 | |
| Oggi h: 07:56 | Nebbia | 17 | 17 | 100 | 1013 | 2 | N 0 | |
| Oggi h: 07:37 | Nebbia | 17 | 17 | 100 | 1013 | 2 | N 0 | |
| Oggi h: 07:20 | Nebbia | 17 | 17 | 100 | 1013 | 0 | N 0 | |
| Oggi h: 07:03 | Nebbia | 17 | 17 | 100 | 1013 | 2 | N 0 | |
| Oggi h: 06:56 | Nebbia | 17 | 17 | 100 | 1012 | 2 | N 0 | |
| Oggi h: 05:56 | Nebbia | 18 | 18 | 100 | 1013 | 2 | N 0 | |
| Oggi h: 04:56 | Nebbia | 17 | 17 | 100 | 1012 | 2 | N 0 | |
| Oggi h: 03:56 | Nebbia | 17 | 17 | 100 | 1012 | 2 | N 0 | |
| Oggi h: 03:42 | Nebbia | 18 | 18 | 100 | 1012 | 2 | N 0 | |
| Oggi h: 02:56 | Nebbia | 17 | 17 | 100 | 1012 | 2 | N 0 | |
| Oggi h: 02:49 | Nebbia | 17 | 17 | 100 | 1012 | 2 | N 0 | |
| Oggi h: 02:39 | Nebbia | 17 | 17 | 100 | 1012 | 2 | N 0 | |
| Oggi h: 01:56 | Nebbia | 18 | 18 | 100 | 1012 | 2 | N 5.5 | |
| Oggi h: 01:25 | Nebbia | 17 | 17 | 100 | 1012 | 2 | N 0 | |
| Oggi h: 01:18 | Nebbia | 18 | 18 | 100 | 1012 | 2 | N 0 | |
| Oggi h: 01:12 | Foschia | 17 | 17 | 100 | 1012 | 2 | N 0 | |
| Oggi h: 00:56 | Nebbia | 18 | 18 | 100 | 1012 | 2 | N 0 | |
| Oggi h: 00:41 | Nebbia | 18 | 18 | 100 | 1012 | 2 | N 0 | |
| Oggi h: 00:31 | Foschia | 18 | 18 | 100 | 1012 | 5 | N 0 | |
| Oggi h: 00:06 | Nebbia | 18 | 18 | 100 | 1012 | 2 | N 0 | |
| Ieri h: 23:56 | Nebbia | 19 | 19 | 100 | 1012 | 2 | N 0 | |
| Ieri h: 23:48 | Nebbia | 19 | 19 | 100 | 1012 | 2 | N 0 | |
| Ieri h: 23:44 | Nebbia | 19 | 19 | 100 | 1012 | 2 | N 0 | |
| Ieri h: 23:35 | Foschia | 19 | 19 | 100 | 1012 | 5 | N 0 | |
| Ieri h: 23:28 | Foschia | 19 | 19 | 100 | 1012 | 2 | N 0 | |
| Ieri h: 22:56 | Nebbia | 20 | 20 | 100 | 1012 | 2 | N 0 | |
| Ieri h: 22:54 | Nebbia | 20 | 20 | 100 | 1012 | 2 | N 0 | |
| Ieri h: 22:45 | Nebbia | 20 | 20 | 100 | 1012 | 2 | N 0 | |
| Ieri h: 22:42 | Foschia | 20 | 20 | 100 | 1012 | 2 | N 0 | |
| Ieri h: 22:24 | Foschia | 21 | 21 | 100 | 1012 | 5 | N 0 | |
| Ieri h: 22:06 | Foschia | 20 | 0 | 26 | 1012 | 3 | N 0 | |
| Ieri h: 21:56 | Foschia | 21 | 0 | 24 | 1012 | 8 | N 0 | |
| Ieri h: 20:56 | Sereno | 22 | 22 | 100 | 1011 | 13 | N 0 | |
| Ieri h: 20:10 | Coperto | 22 | 22 | 100 | 1011 | 10 | N 0 | |
| Ieri h: 19:56 | Coperto | 23 | 22 | 94 | 1011 | 10 | N 0 | |
| Ieri h: 18:56 | Coperto | 23 | 22 | 94 | 1011 | 10 | S/SE 9.3 | |
| Ieri h: 18:25 | Molto Nuvoloso | 24 | 22 | 88 | 1011 | 10 | SE 7.4 | |
| Ieri h: 17:56 | Sereno | 24 | 22 | 88 | 1010 | 10 | SE 7.4 | |
| Ieri h: 16:56 | Sereno | 24 | 22 | 88 | 1010 | 10 | E/SE 9.3 | |
| Ieri h: 15:56 | Sereno | 25 | 22 | 83 | 1010 | 10 | S/SE 11.1 | |
| Ieri h: 15:26 | Nuvoloso | 24 | 22 | 88 | 1010 | 10 | SE 16.7 | |
| Ieri h: 14:56 | Coperto | 24 | 22 | 88 | 1010 | 13 | E/SE 11.1 | |
| Ieri h: 14:47 | Coperto | 24 | 22 | 88 | 1010 | 10 | SE 11.1 | |
| Ieri h: 13:56 | Coperto | 24 | 22 | 88 | 1011 | 10 | N 5.5 | |
| Ieri h: 12:56 | Coperto | 23 | 22 | 94 | 1011 | 10 | S/SE 16.7 | |
| Ieri h: 12:45 | Molto Nuvoloso | 23 | 22 | 94 | 1011 | 10 | S 14.8 | |
| Ieri h: 12:38 | Molto Nuvoloso | 23 | 22 | 94 | 1011 | 10 | S 14.8 | |
| Ieri h: 12:12 | Nuvoloso | 24 | 22 | 88 | 1011 | 10 | S 16.7 | |
| Ieri h: 11:56 | Molto Nuvoloso | 23 | 22 | 94 | 1011 | 14 | S 14.8 | |
| Ieri h: 11:28 | Coperto | 23 | 22 | 94 | 1012 | 11 | S 18.5 | |
| Ieri h: 10:56 | Foschia | 22 | 22 | 100 | 1011 | 10 | S 16.7 | |
| Ieri h: 09:56 | Coperto | 22 | 0 | 23 | 1012 | 11 | S/SE 14.8 | |
| Ieri h: 09:40 | Foschia | 21 | 0 | 24 | 1012 | 10 | SE 13 | |



